Theodore Francis Green State Information

FAA: PVD - ICAO: KPVD

Theodore Francis Green State (Airport) Location

State Rhode Island
County Kent
City Providence
Theodore Francis Green State (Airport) is 6 miles south of Providence, RI.
Latitude 41-43-20.4000N
Longitude 071-25-39.8000W
Elevation 54ft

Theodore Francis Green State METARs

METAR KPVD 251536Z 35006KT 3SM BR OVC004 13/13 A3001 RMK AO2 T01330128
Altimeter 30.01"
Temperature 13.3°C (55.9°F)
Wind 350° at 6KT
Clouds overcast at 400ft
Visibility 3.0mi
Time observed: 2021-10-25T15:36:00Z

Theodore Francis Green State (Airport) Details

Status Operational
Activation September 1937
Ownership Public
Usage Public
Chart NEW YORK
ATC on-site Yes
Beacon schedule sunset-sunrise
Beacon color clear green

Theodore Francis Green State (Airport) Contacts

Owner STATE OF RHODE ISLAND
Owner address RI AIRPORT CORP, 2000 POST RD, WARWICK, RI 02886
Owner phone 401-691-2000
Manager CHRIS KRICHTEN
Manager address 1001 S GEORGE ST, YORK, PA 17403
Manager phone (717) 851-5055

Theodore Francis Green State Radio Frequencies

Theodore Francis Green State (Airport) Radio Frequencies

UNICOM N/A
Common traffic advisory frequency (CTAF) 120.7